Time;durP1;ratioP1;P1;durP2;ratioP2;P2;SDS_P1;SDS_P2;PMS_P1;PMS_P2;Temp;Humidity;BMP_temperature;BMP_pressure;BME280_temperature;BME280_humidity;BME280_pressure;Samples;Min_cycle;Max_cycle;Signal;HPM_P1;HPM_P2
2022/01/12 00:02:23;;;;;;;26.50;10.55;;;;;;;;;;4990079;28;20101;-66
2022/01/12 00:04:49;;;;;;;29.67;10.88;;;;;;;;;;4990488;28;20018;-66
2022/01/12 00:07:14;;;;;;;27.90;10.73;;;;;;;;;;4990346;28;20230;-66
2022/01/12 00:09:39;;;;;;;21.45;10.02;;;;;;;;;;4990259;28;20060;-65
2022/01/12 00:12:05;;;;;;;22.20;10.68;;;;;;;;;;4990168;28;20484;-66
2022/01/12 00:14:30;;;;;;;24.52;11.43;;;;;;;;;;4990839;28;20114;-67
2022/01/12 00:16:59;;;;;;;25.10;9.82;;;;;;;;;;4990117;28;20027;-66
2022/01/12 00:19:25;;;;;;;27.50;10.65;;;;;;;;;;4991998;28;20042;-66
2022/01/12 00:21:50;;;;;;;23.75;9.80;;;;;;;;;;4993767;28;20032;-66
2022/01/12 00:24:16;;;;;;;23.25;10.13;;;;;;;;;;4994205;28;20022;-66
2022/01/12 00:33:07;;;;;;;26.13;9.55;;;;;;;;;;4993783;28;20022;-66
2022/01/12 00:34:54;;;;;;;21.13;8.52;;;;;;;;;;4993519;28;20029;-65
2022/01/12 00:37:19;;;;;;;23.33;9.30;;;;;;;;;;4992777;28;20461;-66
2022/01/12 00:39:44;;;;;;;23.15;10.70;;;;;;;;;;4993650;28;20039;-66
2022/01/12 00:42:13;;;;;;;20.63;9.57;;;;;;;;;;4993601;28;20037;-66
2022/01/12 00:44:43;;;;;;;24.25;10.10;;;;;;;;;;4993081;28;20444;-66
2022/01/12 00:47:09;;;;;;;;;;;;;;;;;;4993689;28;20025;-63
2022/01/12 00:49:34;;;;;;;26.85;8.68;;;;;;;;;;4991928;28;19913;-67
2022/01/12 00:51:59;;;;;;;23.40;10.15;;;;;;;;;;4992907;28;20045;-66
2022/01/12 00:54:25;;;;;;;26.00;10.23;;;;;;;;;;4993289;28;20025;-66
2022/01/12 00:56:50;;;;;;;27.85;11.15;;;;;;;;;;4993051;28;20048;-65
2022/01/12 00:59:15;;;;;;;23.42;10.63;;;;;;;;;;4992655;28;20405;-64
2022/01/12 01:01:41;;;;;;;22.02;9.60;;;;;;;;;;4991085;28;20041;-65
2022/01/12 01:04:07;;;;;;;23.85;9.32;;;;;;;;;;4990313;28;20030;-65
2022/01/12 01:06:32;;;;;;;27.98;9.43;;;;;;;;;;4993365;28;20029;-65
2022/01/12 01:08:58;;;;;;;21.33;8.82;;;;;;;;;;4992591;28;20022;-64
2022/01/12 01:11:23;;;;;;;18.38;9.07;;;;;;;;;;4991880;28;20014;-64
2022/01/12 01:14:00;;;;;;;21.00;9.02;;;;;;;;;;4993527;28;20080;-65
2022/01/12 01:27:27;;;;;;;19.42;8.95;;;;;;;;;;4993524;28;20037;-65
2022/01/12 01:29:54;;;;;;;24.38;8.38;;;;;;;;;;4992164;28;20026;-65
2022/01/12 01:32:19;;;;;;;21.77;8.10;;;;;;;;;;4991455;28;20379;-65
2022/01/12 01:34:47;;;;;;;21.08;8.57;;;;;;;;;;4992987;28;20018;-65
2022/01/12 01:37:12;;;;;;;20.35;9.23;;;;;;;;;;4992957;28;20114;-65
2022/01/12 01:39:38;;;;;;;23.77;9.68;;;;;;;;;;4992403;28;20101;-64
2022/01/12 01:42:11;;;;;;;23.98;9.82;;;;;;;;;;4992461;28;20109;-65
2022/01/12 01:55:18;;;;;;;24.63;10.18;;;;;;;;;;4991855;28;20383;-65
2022/01/12 01:57:43;;;;;;;22.90;9.88;;;;;;;;;;4992334;28;20018;-64
2022/01/12 02:00:10;;;;;;;20.40;9.18;;;;;;;;;;4991746;28;20132;-65
2022/01/12 02:02:35;;;;;;;21.95;8.95;;;;;;;;;;4992004;28;20022;-64
2022/01/12 02:05:00;;;;;;;24.80;8.77;;;;;;;;;;4992137;28;20486;-65
2022/01/12 02:07:26;;;;;;;21.27;8.63;;;;;;;;;;4991690;28;20054;-65
2022/01/12 02:09:51;;;;;;;20.55;9.05;;;;;;;;;;4990808;28;20101;-65
2022/01/12 02:12:27;;;;;;;19.65;8.63;;;;;;;;;;4992148;28;20018;-65
2022/01/12 02:14:53;;;;;;;22.85;8.88;;;;;;;;;;4992155;28;20022;-65
2022/01/12 02:17:23;;;;;;;24.88;8.85;;;;;;;;;;4991251;28;20018;-65
2022/01/12 02:36:33;;;;;;;20.17;8.98;;;;;;;;;;4987387;28;20048;-65
2022/01/12 02:41:42;;;;;;;26.33;8.25;;;;;;;;;;4975951;28;20033;-65
2022/01/12 02:54:50;;;;;;;21.92;9.38;;;;;;;;;;4990974;28;20591;-65
2022/01/12 02:57:15;;;;;;;23.08;8.98;;;;;;;;;;4990986;28;20018;-65
2022/01/12 03:05:14;;;;;;;21.92;8.43;;;;;;;;;;4991275;28;20443;-65
2022/01/12 03:07:39;;;;;;;15.52;6.90;;;;;;;;;;4990616;28;20033;-64
2022/01/12 03:10:05;;;;;;;17.75;7.75;;;;;;;;;;4989931;28;20026;-65
2022/01/12 03:12:31;;;;;;;5.00;2.20;;;;;;;;;;4991412;28;20463;-65
2022/01/12 03:14:56;;;;;;;11.98;6.00;;;;;;;;;;4990826;28;20041;-65
2022/01/12 03:17:21;;;;;;;16.80;7.47;;;;;;;;;;5034860;23;20041;-66
2022/01/12 03:19:46;;;;;;;19.05;7.45;;;;;;;;;;5029826;28;20124;-66
2022/01/12 03:22:12;;;;;;;12.95;7.35;;;;;;;;;;5030048;28;20031;-66
2022/01/12 03:24:37;;;;;;;22.77;8.07;;;;;;;;;;5029730;28;20024;-66
2022/01/12 03:27:03;;;;;;;19.17;7.53;;;;;;;;;;5015773;28;20037;-66
2022/01/12 03:29:28;;;;;;;17.45;8.07;;;;;;;;;;5010503;28;20037;-66
2022/01/12 03:31:56;;;;;;;19.92;8.48;;;;;;;;;;5010673;28;20594;-65
2022/01/12 03:34:29;;;;;;;16.08;7.30;;;;;;;;;;5010376;28;20112;-66
2022/01/12 03:37:17;;;;;;;16.35;7.32;;;;;;;;;;5026031;28;20037;-65
2022/01/12 03:39:39;;;;;;;18.27;8.18;;;;;;;;;;5012431;28;20037;-66
2022/01/12 03:42:05;;;;;;;22.25;8.63;;;;;;;;;;5012768;28;20104;-65
2022/01/12 03:44:30;;;;;;;17.13;7.50;;;;;;;;;;5011272;28;20026;-66
2022/01/12 03:46:55;;;;;;;16.23;7.15;;;;;;;;;;5010227;28;20034;-66
2022/01/12 03:49:21;;;;;;;17.45;8.48;;;;;;;;;;5018229;28;20067;-67
2022/01/12 03:51:47;;;;;;;12.90;6.00;;;;;;;;;;5028233;28;20060;-66
2022/01/12 03:54:12;;;;;;;11.73;4.53;;;;;;;;;;5020185;28;20084;-66
2022/01/12 03:56:37;;;;;;;18.67;7.53;;;;;;;;;;5027163;28;20440;-65
2022/01/12 03:59:03;;;;;;;17.02;7.50;;;;;;;;;;5016018;28;20026;-66
2022/01/12 04:01:28;;;;;;;23.02;8.93;;;;;;;;;;5013151;28;20038;-66
2022/01/12 04:04:04;;;;;;;20.58;8.35;;;;;;;;;;5026993;28;20474;-66
2022/01/12 04:09:13;;;;;;;16.52;7.72;;;;;;;;;;5020346;28;20040;-65
2022/01/12 04:11:39;;;;;;;18.00;8.55;;;;;;;;;;5024917;28;20026;-66
2022/01/12 04:14:05;;;;;;;17.05;7.80;;;;;;;;;;5017698;28;20117;-66
2022/01/12 04:16:30;;;;;;;20.70;8.23;;;;;;;;;;5022494;28;20501;-66
2022/01/12 04:18:55;;;;;;;19.38;8.10;;;;;;;;;;5031863;28;20028;-66
2022/01/12 04:21:27;;;;;;;16.52;8.05;;;;;;;;;;5014151;28;20022;-66
2022/01/12 04:23:52;;;;;;;16.75;8.13;;;;;;;;;;5026738;28;20034;-66
2022/01/12 04:26:18;;;;;;;19.73;8.35;;;;;;;;;;5015315;28;20436;-66
2022/01/12 04:28:43;;;;;;;20.75;8.57;;;;;;;;;;5023712;28;20033;-66
2022/01/12 04:31:09;;;;;;;15.48;7.13;;;;;;;;;;5020121;28;20092;-66
2022/01/12 04:33:35;;;;;;;19.75;8.68;;;;;;;;;;5019954;28;20443;-66
2022/01/12 04:36:01;;;;;;;17.73;8.55;;;;;;;;;;5017213;28;20013;-66
2022/01/12 04:38:28;;;;;;;12.70;7.45;;;;;;;;;;5012933;28;20436;-66
2022/01/12 04:40:54;;;;;;;16.05;8.15;;;;;;;;;;5017966;28;20014;-66
2022/01/12 04:43:22;;;;;;;19.02;7.68;;;;;;;;;;5029185;28;20033;-66
2022/01/12 04:50:42;;;;;;;18.35;8.65;;;;;;;;;;5015649;28;20021;-66
2022/01/12 04:53:07;;;;;;;27.42;8.43;;;;;;;;;;5018767;28;20028;-65
2022/01/12 04:55:33;;;;;;;22.15;8.35;;;;;;;;;;5013566;28;20825;-66
2022/01/12 04:57:58;;;;;;;16.77;7.68;;;;;;;;;;5011814;28;20140;-65
2022/01/12 05:00:25;;;;;;;20.23;8.10;;;;;;;;;;5013305;28;20256;-66
2022/01/12 05:13:29;;;;;;;14.15;7.13;;;;;;;;;;5018450;28;20456;-66
2022/01/12 05:15:54;;;;;;;16.95;8.40;;;;;;;;;;5014073;28;20014;-66
2022/01/12 05:18:20;;;;;;;17.40;8.05;;;;;;;;;;5018245;28;20363;-66
2022/01/12 05:20:46;;;;;;;19.42;7.65;;;;;;;;;;5025912;28;20438;-66
2022/01/12 05:23:11;;;;;;;18.80;8.63;;;;;;;;;;5012617;28;20075;-66
2022/01/12 05:25:37;;;;;;;28.52;10.02;;;;;;;;;;5016426;28;20112;-66
2022/01/12 05:28:02;;;;;;;23.50;9.40;;;;;;;;;;5012392;28;20028;-66
2022/01/12 05:30:27;;;;;;;19.33;8.88;;;;;;;;;;5011544;28;20480;-66
2022/01/12 05:32:52;;;;;;;23.67;9.18;;;;;;;;;;5029868;28;20382;-66
2022/01/12 05:35:18;;;;;;;18.42;8.68;;;;;;;;;;5020558;28;20116;-66
2022/01/12 05:37:44;;;;;;;21.63;8.77;;;;;;;;;;5012554;28;20096;-66
2022/01/12 05:40:10;;;;;;;20.67;10.18;;;;;;;;;;5011828;28;20022;-66
2022/01/12 05:42:36;;;;;;;21.92;8.35;;;;;;;;;;5026799;28;20428;-65
2022/01/12 05:45:01;;;;;;;16.50;7.90;;;;;;;;;;5025330;28;20030;-66
2022/01/12 05:49:33;;;;;;;19.58;8.15;;;;;;;;;;5018826;28;20454;-66
2022/01/12 05:50:14;;;;;;;23.45;9.95;;;;;;;;;;5018066;28;20088;-66
2022/01/12 05:52:40;;;;;;;28.25;8.95;;;;;;;;;;5007213;28;20030;-66
2022/01/12 05:55:06;;;;;;;18.08;8.55;;;;;;;;;;5014133;28;20635;-66
2022/01/12 05:57:32;;;;;;;17.35;8.50;;;;;;;;;;5009763;28;20028;-66
2022/01/12 05:59:57;;;;;;;21.50;9.27;;;;;;;;;;5010920;28;20098;-65
2022/01/12 06:02:23;;;;;;;19.77;8.52;;;;;;;;;;5007123;28;20385;-66
2022/01/12 06:04:48;;;;;;;19.58;7.53;;;;;;;;;;5010207;28;20030;-65
2022/01/12 06:07:13;;;;;;;20.40;8.13;;;;;;;;;;5019526;28;20049;-65
2022/01/12 06:09:38;;;;;;;19.38;9.02;;;;;;;;;;5018239;28;20284;-65
2022/01/12 06:12:04;;;;;;;17.58;8.88;;;;;;;;;;5020084;28;20500;-65
2022/01/12 06:14:30;;;;;;;19.90;8.98;;;;;;;;;;5009591;28;20053;-66
2022/01/12 06:16:55;;;;;;;19.63;8.55;;;;;;;;;;5020068;28;20141;-66
2022/01/12 06:19:20;;;;;;;23.02;8.45;;;;;;;;;;5009784;28;20057;-66
2022/01/12 06:21:45;;;;;;;22.98;9.45;;;;;;;;;;5008079;28;20265;-65
2022/01/12 06:24:11;;;;;;;16.50;8.65;;;;;;;;;;5005710;28;20482;-67
2022/01/12 06:26:37;;;;;;;27.60;10.80;;;;;;;;;;5009443;28;20440;-66
2022/01/12 06:31:40;;;;;;;23.15;9.05;;;;;;;;;;5009003;28;20029;-67
2022/01/12 06:34:06;;;;;;;20.27;8.95;;;;;;;;;;5016317;28;20018;-66
2022/01/12 06:36:31;;;;;;;26.63;9.65;;;;;;;;;;5010287;28;20026;-66
2022/01/12 06:38:56;;;;;;;17.20;6.78;;;;;;;;;;5023231;28;20029;-66
2022/01/12 06:41:22;;;;;;;29.10;9.82;;;;;;;;;;5011163;28;20113;-66
2022/01/12 06:43:47;;;;;;;18.20;8.40;;;;;;;;;;5013515;28;20102;-66
2022/01/12 06:46:19;;;;;;;20.90;8.35;;;;;;;;;;5013125;28;20038;-66
2022/01/12 06:48:45;;;;;;;21.33;9.70;;;;;;;;;;5005259;28;20076;-66
2022/01/12 06:51:10;;;;;;;19.42;6.75;;;;;;;;;;5003060;28;20022;-66
2022/01/12 06:53:35;;;;;;;18.30;9.02;;;;;;;;;;5025452;28;20116;-66
2022/01/12 06:56:01;;;;;;;10.90;6.03;;;;;;;;;;5014821;28;20037;-66
2022/01/12 06:58:26;;;;;;;15.75;5.65;;;;;;;;;;5018001;28;20048;-66
2022/01/12 07:00:51;;;;;;;15.02;7.60;;;;;;;;;;5019450;28;20022;-66
2022/01/12 07:03:17;;;;;;;23.85;9.30;;;;;;;;;;5010552;28;20084;-66
2022/01/12 07:05:42;;;;;;;20.40;7.72;;;;;;;;;;5014989;28;20033;-66
2022/01/12 07:08:07;;;;;;;15.57;7.35;;;;;;;;;;5022263;28;20013;-66
2022/01/12 07:10:32;;;;;;;35.15;10.60;;;;;;;;;;5016495;28;20061;-66
2022/01/12 07:12:58;;;;;;;20.23;8.45;;;;;;;;;;5026028;28;20029;-66
2022/01/12 07:15:23;;;;;;;22.77;9.27;;;;;;;;;;5018977;28;20381;-66
2022/01/12 07:17:49;;;;;;;20.10;8.10;;;;;;;;;;5018152;28;20045;-66
2022/01/12 07:20:14;;;;;;;19.17;8.20;;;;;;;;;;5017258;28;20029;-66
2022/01/12 07:22:39;;;;;;;21.92;9.00;;;;;;;;;;5023816;28;20056;-66
2022/01/12 07:25:05;;;;;;;20.33;9.60;;;;;;;;;;5010456;28;20037;-66
2022/01/12 07:27:30;;;;;;;20.40;9.98;;;;;;;;;;5023204;28;20025;-66
2022/01/12 07:29:55;;;;;;;22.67;10.13;;;;;;;;;;5012565;28;20025;-66
2022/01/12 07:32:20;;;;;;;18.20;8.93;;;;;;;;;;5014501;28;20021;-66
2022/01/12 07:34:46;;;;;;;23.08;10.20;;;;;;;;;;5013734;28;20030;-66
2022/01/12 07:37:12;;;;;;;19.73;10.00;;;;;;;;;;5026653;28;20033;-66
2022/01/12 07:39:37;;;;;;;20.48;9.48;;;;;;;;;;5018944;28;20041;-66
2022/01/12 07:42:03;;;;;;;20.48;9.40;;;;;;;;;;5022708;28;20633;-66
2022/01/12 07:44:29;;;;;;;19.55;9.75;;;;;;;;;;5019774;28;20026;-66
2022/01/12 07:46:54;;;;;;;21.45;9.75;;;;;;;;;;5024452;28;20032;-66
2022/01/12 07:49:19;;;;;;;20.45;9.73;;;;;;;;;;5012111;28;20048;-66
2022/01/12 07:51:44;;;;;;;19.27;9.88;;;;;;;;;;5017654;28;20045;-66
2022/01/12 07:54:09;;;;;;;18.52;8.07;;;;;;;;;;5027510;28;20095;-66
2022/01/12 07:56:35;;;;;;;23.65;9.32;;;;;;;;;;5009281;28;20014;-66
2022/01/12 07:59:00;;;;;;;20.38;9.70;;;;;;;;;;5009078;28;20061;-66
2022/01/12 08:01:25;;;;;;;19.10;10.30;;;;;;;;;;5008467;28;20029;-66
2022/01/12 08:03:51;;;;;;;21.88;10.38;;;;;;;;;;5014987;28;20261;-66
2022/01/12 08:06:16;;;;;;;23.23;9.82;;;;;;;;;;5015453;28;20382;-66
2022/01/12 08:08:41;;;;;;;20.50;10.93;;;;;;;;;;5013319;28;20049;-66
2022/01/12 08:11:07;;;;;;;19.48;10.00;;;;;;;;;;5009879;28;20036;-65
2022/01/12 08:13:32;;;;;;;20.92;10.68;;;;;;;;;;5011294;28;20026;-65
2022/01/12 08:15:57;;;;;;;23.50;10.80;;;;;;;;;;5017784;28;20021;-65
2022/01/12 08:18:23;;;;;;;21.45;9.85;;;;;;;;;;5009623;28;20042;-65
2022/01/12 08:20:49;;;;;;;21.15;11.30;;;;;;;;;;5014422;28;20101;-65
2022/01/12 08:23:14;;;;;;;20.73;10.10;;;;;;;;;;5020785;28;20117;-65
2022/01/12 08:25:40;;;;;;;21.15;10.80;;;;;;;;;;5021634;28;20083;-65
2022/01/12 08:28:05;;;;;;;22.90;9.70;;;;;;;;;;5012768;28;20609;-65
2022/01/12 08:30:32;;;;;;;22.80;9.63;;;;;;;;;;4991396;28;20137;-65
2022/01/12 08:32:57;;;;;;;19.98;8.95;;;;;;;;;;5009376;28;20584;-65
2022/01/12 08:35:22;;;;;;;17.08;8.02;;;;;;;;;;5025120;28;20053;-65
2022/01/12 08:37:47;;;;;;;20.73;8.48;;;;;;;;;;5015708;28;20371;-65
2022/01/12 08:40:14;;;;;;;16.42;7.97;;;;;;;;;;5012927;28;20482;-65
2022/01/12 08:42:39;;;;;;;21.55;9.70;;;;;;;;;;5027279;28;20103;-65
2022/01/12 08:45:05;;;;;;;28.48;9.77;;;;;;;;;;5014516;28;20037;-65
2022/01/12 08:47:30;;;;;;;18.38;8.18;;;;;;;;;;5018902;28;20067;-65
2022/01/12 08:49:56;;;;;;;18.95;7.93;;;;;;;;;;5016920;28;20397;-65
2022/01/12 08:52:24;;;;;;;21.90;10.00;;;;;;;;;;5015815;28;20508;-65
2022/01/12 08:54:50;;;;;;;18.95;9.55;;;;;;;;;;5013004;28;20037;-65
2022/01/12 08:57:15;;;;;;;19.48;9.95;;;;;;;;;;5011138;28;20030;-66
2022/01/12 08:59:40;;;;;;;21.88;9.65;;;;;;;;;;5012540;28;20017;-66
2022/01/12 09:02:07;;;;;;;18.17;9.35;;;;;;;;;;5012777;28;20375;-65
2022/01/12 09:04:32;;;;;;;23.67;10.55;;;;;;;;;;5012325;28;20175;-65
2022/01/12 09:06:57;;;;;;;21.02;10.15;;;;;;;;;;5013180;28;20521;-66
2022/01/12 09:09:23;;;;;;;25.65;8.90;;;;;;;;;;5012041;28;20029;-66
2022/01/12 09:11:48;;;;;;;19.63;8.98;;;;;;;;;;5012399;28;20022;-66
2022/01/12 09:14:15;;;;;;;18.92;9.95;;;;;;;;;;5016263;28;20433;-66
2022/01/12 09:17:15;;;;;;;23.02;10.55;;;;;;;;;;5040327;23;20048;-89
2022/01/12 09:19:46;;;;;;;;;;;;;;;;;;5029586;28;20036;-89
2022/01/12 09:22:14;;;;;;;32.95;9.73;;;;;;;;;;5029392;28;19958;-90
2022/01/12 09:25:41;;;;;;;;;;;;;;;;;;;;;
2022/01/12 09:28:13;;;;;;;28.08;11.13;;;;;;;;;;4977036;28;20482;-89
2022/01/12 09:31:14;;;;;;;25.30;10.80;;;;;;;;;;5011394;28;20141;-90
2022/01/12 09:37:33;;;;;;;;;;;;;;;;;;;;;
2022/01/12 09:40:20;;;;;;;18.70;10.30;;;;;;;;;;4931741;29;20020;-89
2022/01/12 09:43:06;;;;;;;30.77;10.32;;;;;;;;;;4999214;28;20044;-89
2022/01/12 09:45:59;;;;;;;25.42;10.43;;;;;;;;;;4974069;28;20023;-89
2022/01/12 09:49:10;;;;;;;;;;;;;;;;;;;;;
2022/01/12 09:52:02;;;;;;;;;;;;;;;;;;;;;
2022/01/12 10:00:57;;;;;;;22.75;10.73;;;;;;;;;;4999350;23;20611;-66
2022/01/12 10:03:23;;;;;;;22.80;10.90;;;;;;;;;;5031291;28;20486;-67
2022/01/12 10:05:49;;;;;;;20.02;10.57;;;;;;;;;;5031617;28;20021;-67
2022/01/12 10:08:15;;;;;;;22.02;11.13;;;;;;;;;;5014597;28;20126;-67
2022/01/12 10:10:42;;;;;;;23.63;11.52;;;;;;;;;;5012213;28;20060;-67
2022/01/12 10:13:23;;;;;;;17.75;7.78;;;;;;;;;;5011721;28;20052;-67
2022/01/12 10:15:52;;;;;;;27.08;11.77;;;;;;;;;;5014177;28;20429;-66
2022/01/12 10:18:18;;;;;;;19.52;7.30;;;;;;;;;;5012187;28;20017;-67
2022/01/12 10:20:44;;;;;;;20.20;9.45;;;;;;;;;;5003202;28;20144;-66
2022/01/12 10:23:11;;;;;;;23.17;11.27;;;;;;;;;;5009312;28;20021;-67
2022/01/12 10:25:37;;;;;;;34.72;11.27;;;;;;;;;;5010831;28;20022;-67
2022/01/12 10:28:16;;;;;;;26.75;10.98;;;;;;;;;;5011195;28;20485;-67
2022/01/12 10:31:01;;;;;;;19.10;8.43;;;;;;;;;;5011501;28;20029;-66
2022/01/12 10:33:29;;;;;;;22.55;9.77;;;;;;;;;;5012074;28;20038;-66
2022/01/12 10:35:55;;;;;;;26.40;11.60;;;;;;;;;;5011236;28;20018;-67
2022/01/12 10:38:22;;;;;;;24.55;11.43;;;;;;;;;;5011647;28;20493;-67
2022/01/12 10:40:52;;;;;;;29.20;11.00;;;;;;;;;;5011501;28;20021;-66
2022/01/12 10:43:27;;;;;;;22.63;12.10;;;;;;;;;;5019837;28;20029;-67
2022/01/12 10:45:52;;;;;;;16.27;6.03;;;;;;;;;;5012401;28;20513;-67
2022/01/12 10:48:17;;;;;;;23.52;10.93;;;;;;;;;;5014482;28;20061;-67
2022/01/12 10:50:55;;;;;;;24.98;12.25;;;;;;;;;;5011051;28;20083;-67
2022/01/12 10:53:34;;;;;;;26.55;12.73;;;;;;;;;;5009872;28;20010;-67
2022/01/12 10:56:00;;;;;;;33.15;14.10;;;;;;;;;;5007519;28;20037;-67
2022/01/12 10:58:25;;;;;;;23.55;11.63;;;;;;;;;;5009308;28;20164;-67
2022/01/12 11:00:51;;;;;;;28.60;12.10;;;;;;;;;;5010519;28;20494;-67
2022/01/12 11:03:17;;;;;;;26.60;12.05;;;;;;;;;;5010698;28;20018;-67
2022/01/12 11:05:42;;;;;;;24.75;11.60;;;;;;;;;;5010721;28;20048;-67
2022/01/12 11:08:10;;;;;;;27.58;12.80;;;;;;;;;;5010422;28;20485;-67
2022/01/12 11:10:35;;;;;;;28.98;13.77;;;;;;;;;;5010603;28;20025;-67
2022/01/12 11:13:01;;;;;;;23.08;11.75;;;;;;;;;;5009684;28;20022;-67
2022/01/12 11:15:26;;;;;;;24.95;11.80;;;;;;;;;;5010509;28;20030;-67
2022/01/12 11:17:53;;;;;;;30.50;12.57;;;;;;;;;;5010742;28;20021;-67
2022/01/12 11:20:25;;;;;;;30.00;11.73;;;;;;;;;;5010715;28;20066;-67
2022/01/12 11:23:03;;;;;;;29.23;12.82;;;;;;;;;;5010545;28;20397;-67
2022/01/12 11:25:38;;;;;;;32.75;12.95;;;;;;;;;;5010569;28;20025;-67
2022/01/12 11:28:03;;;;;;;26.60;13.52;;;;;;;;;;5010348;28;20046;-67
2022/01/12 11:30:29;;;;;;;32.35;14.57;;;;;;;;;;5010128;28;20127;-67
2022/01/12 11:32:54;;;;;;;37.17;15.00;;;;;;;;;;5010161;28;20264;-67
2022/01/12 11:35:24;;;;;;;33.13;13.93;;;;;;;;;;5010482;28;20030;-67
2022/01/12 11:37:49;;;;;;;36.33;14.65;;;;;;;;;;5010182;28;20090;-67
2022/01/12 11:40:15;;;;;;;30.23;13.65;;;;;;;;;;5010440;28;20065;-67
2022/01/12 11:42:40;;;;;;;36.20;13.65;;;;;;;;;;5010164;28;20032;-67
2022/01/12 11:45:05;;;;;;;34.75;14.48;;;;;;;;;;5010574;28;20092;-67
2022/01/12 11:47:31;;;;;;;34.60;14.57;;;;;;;;;;5008181;28;20033;-67
2022/01/12 11:49:56;;;;;;;35.13;14.40;;;;;;;;;;5010198;28;20072;-67
2022/01/12 11:52:25;;;;;;;44.28;16.17;;;;;;;;;;5009401;28;20026;-67
2022/01/12 11:54:53;;;;;;;55.65;16.95;;;;;;;;;;5010332;28;20042;-67
2022/01/12 11:57:19;;;;;;;55.92;18.65;;;;;;;;;;5009579;28;20021;-67
2022/01/12 11:59:53;;;;;;;57.35;18.20;;;;;;;;;;5009531;28;20034;-67
2022/01/12 12:02:20;;;;;;;53.30;16.15;;;;;;;;;;5008396;28;20033;-67
2022/01/12 12:04:59;;;;;;;56.25;15.52;;;;;;;;;;5009890;28;20371;-67
2022/01/12 12:07:24;;;;;;;64.10;17.38;;;;;;;;;;5010001;28;20025;-67
2022/01/12 12:09:53;;;;;;;72.20;21.65;;;;;;;;;;5009334;28;20478;-67
2022/01/12 12:12:22;;;;;;;68.40;17.17;;;;;;;;;;5010270;28;20017;-67
2022/01/12 12:14:49;;;;;;;67.13;22.57;;;;;;;;;;5010889;28;20366;-67
2022/01/12 12:17:17;;;;;;;66.57;21.48;;;;;;;;;;5013933;28;20265;-67
2022/01/12 12:19:43;;;;;;;66.07;19.10;;;;;;;;;;5013074;28;20117;-67
2022/01/12 12:22:13;;;;;;;57.60;20.52;;;;;;;;;;5013882;28;20112;-67
2022/01/12 12:24:38;;;;;;;59.25;18.95;;;;;;;;;;4994620;28;20029;-67
2022/01/12 12:27:04;;;;;;;66.45;21.13;;;;;;;;;;5011345;28;20030;-69
2022/01/12 12:29:30;;;;;;;71.80;19.90;;;;;;;;;;5013625;28;20127;-67
2022/01/12 12:31:58;;;;;;;88.65;21.02;;;;;;;;;;5013498;28;20061;-67
2022/01/12 12:34:25;;;;;;;70.40;21.30;;;;;;;;;;5013306;28;20390;-68
2022/01/12 12:37:00;;;;;;;78.95;20.85;;;;;;;;;;5013413;28;20117;-67
2022/01/12 12:39:27;;;;;;;61.80;20.08;;;;;;;;;;5013538;28;20029;-68
2022/01/12 12:41:53;;;;;;;69.18;20.55;;;;;;;;;;5012871;28;20170;-68
2022/01/12 12:44:19;;;;;;;63.15;21.13;;;;;;;;;;5029512;28;20108;-67
2022/01/12 12:46:44;;;;;;;62.80;21.15;;;;;;;;;;5014190;28;20017;-67
2022/01/12 12:49:10;;;;;;;65.93;21.42;;;;;;;;;;5012547;28;20030;-67
2022/01/12 12:51:35;;;;;;;75.95;20.92;;;;;;;;;;5015148;28;20013;-68
2022/01/12 12:54:00;;;;;;;70.32;23.23;;;;;;;;;;5012827;28;20144;-68
2022/01/12 12:56:28;;;;;;;62.20;20.73;;;;;;;;;;5014030;28;20319;-67
2022/01/12 12:58:55;;;;;;;63.28;21.95;;;;;;;;;;5011443;28;20018;-68
2022/01/12 13:01:21;;;;;;;68.75;23.27;;;;;;;;;;5019014;28;20037;-68
2022/01/12 13:03:47;;;;;;;74.05;22.30;;;;;;;;;;5012425;28;20125;-68
2022/01/12 13:06:26;;;;;;;72.47;21.88;;;;;;;;;;5012877;28;20026;-67
2022/01/12 13:08:57;;;;;;;63.60;20.48;;;;;;;;;;5017737;28;20347;-68
2022/01/12 13:11:32;;;;;;;83.93;22.65;;;;;;;;;;5013296;28;20512;-68
2022/01/12 13:14:05;;;;;;;72.70;23.83;;;;;;;;;;5013259;28;20429;-68
2022/01/12 13:16:30;;;;;;;79.78;24.33;;;;;;;;;;5019808;28;20017;-68
2022/01/12 13:19:06;;;;;;;86.80;24.13;;;;;;;;;;5014361;28;20040;-68
2022/01/12 13:21:32;;;;;;;76.15;23.02;;;;;;;;;;5012679;28;20088;-67
2022/01/12 13:23:59;;;;;;;69.03;22.20;;;;;;;;;;5013496;28;20033;-68
2022/01/12 13:26:25;;;;;;;69.55;23.17;;;;;;;;;;5018508;28;20034;-67
2022/01/12 13:28:50;;;;;;;80.78;24.92;;;;;;;;;;5011591;28;20017;-68
2022/01/12 13:31:16;;;;;;;70.07;23.65;;;;;;;;;;5013802;28;20067;-67
2022/01/12 13:33:43;;;;;;;72.78;24.52;;;;;;;;;;5013427;28;20064;-68
2022/01/12 13:36:11;;;;;;;76.75;24.23;;;;;;;;;;5019389;28;20030;-67
2022/01/12 13:38:37;;;;;;;77.57;25.65;;;;;;;;;;5027244;28;20071;-68
2022/01/12 13:41:09;;;;;;;79.13;24.92;;;;;;;;;;5012630;28;20026;-67
2022/01/12 13:43:35;;;;;;;71.30;24.00;;;;;;;;;;5012257;28;20112;-67
2022/01/12 13:46:03;;;;;;;81.97;24.45;;;;;;;;;;5012271;28;20442;-67
2022/01/12 13:48:31;;;;;;;79.07;25.25;;;;;;;;;;5014454;28;20028;-67
2022/01/12 13:50:56;;;;;;;78.20;24.45;;;;;;;;;;5019155;28;20432;-67
2022/01/12 13:53:38;;;;;;;85.30;26.63;;;;;;;;;;5011542;28;20030;-67
2022/01/12 13:56:04;;;;;;;73.85;24.83;;;;;;;;;;5011823;28;20101;-67
2022/01/12 13:58:30;;;;;;;72.70;24.95;;;;;;;;;;5009524;28;20044;-67
2022/01/12 14:01:10;;;;;;;78.38;26.48;;;;;;;;;;5013217;28;20025;-67
2022/01/12 14:03:51;;;;;;;82.25;25.23;;;;;;;;;;5013463;28;20037;-67
2022/01/12 14:06:17;;;;;;;89.43;27.70;;;;;;;;;;5007122;28;20100;-68
2022/01/12 14:08:51;;;;;;;105.75;26.73;;;;;;;;;;5012378;28;20025;-68
2022/01/12 14:11:16;;;;;;;76.40;24.42;;;;;;;;;;5014995;28;20036;-68
2022/01/12 14:13:42;;;;;;;81.93;25.73;;;;;;;;;;5011878;28;20449;-68
2022/01/12 14:16:08;;;;;;;70.15;27.10;;;;;;;;;;5009729;28;20482;-68
2022/01/12 14:18:33;;;;;;;88.32;26.45;;;;;;;;;;5010535;28;20047;-68
2022/01/12 14:20:59;;;;;;;96.05;29.85;;;;;;;;;;5010277;28;20034;-68
2022/01/12 14:23:25;;;;;;;81.35;27.25;;;;;;;;;;5015140;28;20079;-68
2022/01/12 14:25:50;;;;;;;91.38;28.75;;;;;;;;;;5020789;28;20037;-68
2022/01/12 14:28:17;;;;;;;89.97;31.30;;;;;;;;;;5011996;28;20099;-67
2022/01/12 14:30:43;;;;;;;75.43;27.77;;;;;;;;;;5012944;28;20116;-67
2022/01/12 14:33:08;;;;;;;75.72;27.25;;;;;;;;;;5031428;28;20113;-67
2022/01/12 14:35:34;;;;;;;79.75;28.20;;;;;;;;;;5011686;28;20049;-67
2022/01/12 14:37:59;;;;;;;94.95;28.70;;;;;;;;;;5016273;28;20433;-67
2022/01/12 14:40:24;;;;;;;88.40;28.58;;;;;;;;;;5012323;28;20030;-68
2022/01/12 14:42:54;;;;;;;105.07;30.20;;;;;;;;;;5013366;28;20553;-67
2022/01/12 14:45:30;;;;;;;110.43;32.28;;;;;;;;;;5008956;28;20017;-67
2022/01/12 14:47:56;;;;;;;96.00;28.23;;;;;;;;;;5011215;28;20041;-67
2022/01/12 14:50:21;;;;;;;98.40;28.63;;;;;;;;;;5010987;28;20406;-66
2022/01/12 14:52:47;;;;;;;102.70;31.20;;;;;;;;;;5027285;28;20032;-67
2022/01/12 14:55:12;;;;;;;82.63;28.17;;;;;;;;;;5010646;28;20313;-67
2022/01/12 14:57:37;;;;;;;92.20;30.10;;;;;;;;;;5026085;28;20020;-67
2022/01/12 15:00:08;;;;;;;96.47;30.35;;;;;;;;;;5013779;28;20133;-67
2022/01/12 15:02:33;;;;;;;92.30;28.85;;;;;;;;;;5010242;28;20030;-67
2022/01/12 15:04:58;;;;;;;92.68;28.27;;;;;;;;;;5010874;28;20374;-67
2022/01/12 15:07:23;;;;;;;98.55;30.63;;;;;;;;;;5009712;28;20504;-67
2022/01/12 15:09:49;;;;;;;90.37;30.60;;;;;;;;;;5010240;28;20026;-68
2022/01/12 15:12:19;;;;;;;83.57;27.60;;;;;;;;;;5011590;28;20332;-68
2022/01/12 15:14:56;;;;;;;98.97;30.08;;;;;;;;;;5010080;28;20025;-68
2022/01/12 15:17:22;;;;;;;102.32;31.02;;;;;;;;;;5016835;28;20026;-68
2022/01/12 15:19:47;;;;;;;96.13;32.28;;;;;;;;;;5019719;28;20025;-68
2022/01/12 15:22:12;;;;;;;101.88;29.55;;;;;;;;;;5014640;28;20030;-68
2022/01/12 15:24:37;;;;;;;102.93;31.53;;;;;;;;;;5016571;28;20033;-68
2022/01/12 15:27:03;;;;;;;127.75;32.63;;;;;;;;;;5011444;28;20379;-68
2022/01/12 15:29:28;;;;;;;108.05;32.05;;;;;;;;;;5011075;28;20029;-68
2022/01/12 15:31:53;;;;;;;102.63;32.23;;;;;;;;;;5014952;28;20034;-68
2022/01/12 15:34:18;;;;;;;114.60;34.07;;;;;;;;;;5013328;28;20258;-68
2022/01/12 15:36:43;;;;;;;132.82;33.50;;;;;;;;;;5008514;28;20276;-68
2022/01/12 15:39:09;;;;;;;117.35;36.13;;;;;;;;;;5010497;28;20042;-68
2022/01/12 15:41:34;;;;;;;109.18;30.95;;;;;;;;;;5016810;28;20028;-68
2022/01/12 15:43:59;;;;;;;124.07;34.03;;;;;;;;;;5028139;28;20439;-67
2022/01/12 15:46:24;;;;;;;111.00;34.92;;;;;;;;;;5018987;28;20271;-67
2022/01/12 15:48:50;;;;;;;105.35;30.58;;;;;;;;;;5019893;28;20399;-67
2022/01/12 15:51:15;;;;;;;95.65;30.60;;;;;;;;;;5017895;28;20033;-67
2022/01/12 15:53:40;;;;;;;102.97;31.33;;;;;;;;;;5014640;28;20069;-67
2022/01/12 15:56:06;;;;;;;101.50;30.08;;;;;;;;;;5013445;28;20275;-68
2022/01/12 15:58:32;;;;;;;96.85;29.23;;;;;;;;;;5019591;28;20022;-68
2022/01/12 16:00:57;;;;;;;86.50;29.58;;;;;;;;;;5022717;28;20017;-68
2022/01/12 16:03:22;;;;;;;98.57;30.38;;;;;;;;;;5016259;28;20525;-68